Time;durP1;ratioP1;P1;durP2;ratioP2;P2;SDS_P1;SDS_P2;PMS_P1;PMS_P2;Temp;Humidity;BMP_temperature;BMP_pressure;BME280_temperature;BME280_humidity;BME280_pressure;Samples;Min_cycle;Max_cycle;Signal;HPM_P1;HPM_P2
2023/03/22 00:01:09;;;;;;;2.70;2.20;;;8.80;99.90;;;;;;5051549;28;20247;-69
2023/03/22 00:03:36;;;;;;;2.15;1.60;;;8.70;99.90;;;;;;5051810;28;20586;-69
2023/03/22 00:06:05;;;;;;;2.88;2.00;;;8.70;99.90;;;;;;5051873;28;20240;-69
2023/03/22 00:08:31;;;;;;;1.90;1.80;;;8.70;99.90;;;;;;5052499;28;20216;-69
2023/03/22 00:10:59;;;;;;;2.08;1.75;;;8.70;99.90;;;;;;5052090;28;20193;-69
2023/03/22 00:13:26;;;;;;;2.33;1.90;;;8.60;99.90;;;;;;5051970;28;20584;-69
2023/03/22 00:15:55;;;;;;;2.40;1.70;;;8.60;99.90;;;;;;5040741;28;20213;-69
2023/03/22 00:18:21;;;;;;;1.77;1.40;;;8.60;99.90;;;;;;5051312;28;20197;-69
2023/03/22 00:20:49;;;;;;;2.88;2.00;;;8.60;99.90;;;;;;5050987;28;20330;-69
2023/03/22 00:23:18;;;;;;;2.85;1.90;;;8.50;99.90;;;;;;5051327;28;20292;-69
2023/03/22 00:25:45;;;;;;;2.17;1.45;;;8.50;99.90;;;;;;5042065;28;20615;-69
2023/03/22 00:28:13;;;;;;;2.15;1.92;;;8.50;99.90;;;;;;5051442;28;20392;-69
2023/03/22 00:30:40;;;;;;;2.00;1.80;;;8.40;99.90;;;;;;5051111;28;20205;-69
2023/03/22 00:33:07;;;;;;;2.00;1.70;;;8.40;99.90;;;;;;5051701;28;20287;-69
2023/03/22 00:35:34;;;;;;;3.28;1.90;;;8.40;99.90;;;;;;5050862;28;20225;-69
2023/03/22 00:38:12;;;;;;;2.50;2.30;;;8.30;99.90;;;;;;5051620;28;20272;-69
2023/03/22 00:40:41;;;;;;;2.80;2.13;;;8.30;99.90;;;;;;5050630;28;20577;-69
2023/03/22 00:43:08;;;;;;;1.30;1.20;;;8.30;99.90;;;;;;5051534;28;20250;-69
2023/03/22 00:45:36;;;;;;;1.90;1.70;;;8.30;99.90;;;;;;5047950;28;20313;-69
2023/03/22 00:48:04;;;;;;;2.35;1.70;;;8.30;99.90;;;;;;5050296;28;20217;-69
2023/03/22 00:50:31;;;;;;;2.22;2.00;;;8.30;99.90;;;;;;5051050;28;20295;-69
2023/03/22 00:52:57;;;;;;;1.95;1.63;;;8.20;99.90;;;;;;5050734;28;20201;-69
2023/03/22 00:55:24;;;;;;;1.92;1.73;;;8.20;99.90;;;;;;5050733;28;20229;-69
2023/03/22 00:57:52;;;;;;;2.03;1.73;;;8.20;99.90;;;;;;5049940;28;20209;-69
2023/03/22 01:00:19;;;;;;;2.67;1.95;;;8.20;99.90;;;;;;5051676;28;20201;-68
2023/03/22 01:02:46;;;;;;;3.17;2.35;;;8.10;99.90;;;;;;5051204;28;20771;-69
2023/03/22 01:05:14;;;;;;;2.30;2.10;;;8.00;99.90;;;;;;5051257;28;20224;-69
2023/03/22 01:07:41;;;;;;;2.70;1.80;;;8.00;99.90;;;;;;5050577;28;20216;-69
2023/03/22 01:10:09;;;;;;;2.20;1.85;;;8.00;99.90;;;;;;5051585;28;20197;-69
2023/03/22 01:12:36;;;;;;;3.90;1.63;;;7.90;99.90;;;;;;5050948;28;20578;-69
2023/03/22 01:15:05;;;;;;;3.05;2.20;;;7.90;99.90;;;;;;5050936;28;20220;-68
2023/03/22 01:17:32;;;;;;;1.83;1.73;;;7.80;99.90;;;;;;5050306;28;20566;-69
2023/03/22 01:19:59;;;;;;;2.15;1.98;;;7.80;99.90;;;;;;5050528;28;20285;-69
2023/03/22 01:22:26;;;;;;;2.33;1.90;;;7.70;99.90;;;;;;5050917;28;20208;-68
2023/03/22 01:24:53;;;;;;;2.40;1.80;;;7.70;99.90;;;;;;5050054;28;20737;-68
2023/03/22 01:27:19;;;;;;;2.78;1.85;;;7.60;99.90;;;;;;5050545;28;20229;-69
2023/03/22 01:29:46;;;;;;;1.70;1.50;;;7.60;99.90;;;;;;5050385;28;20201;-69
2023/03/22 01:32:14;;;;;;;1.90;1.60;;;7.50;99.90;;;;;;5050835;28;20209;-69
2023/03/22 01:34:42;;;;;;;2.03;1.80;;;7.50;99.90;;;;;;5050111;28;20231;-69
2023/03/22 01:37:09;;;;;;;2.80;2.15;;;7.50;99.90;;;;;;5050691;28;20189;-69
2023/03/22 01:39:35;;;;;;;1.90;1.70;;;7.40;99.90;;;;;;5050960;28;20293;-69
2023/03/22 01:42:02;;;;;;;1.92;1.70;;;7.40;99.90;;;;;;5050500;28;20212;-69
2023/03/22 01:44:30;;;;;;;3.50;1.83;;;7.40;99.90;;;;;;5050513;28;20248;-69
2023/03/22 01:46:57;;;;;;;2.55;2.17;;;7.30;99.90;;;;;;5050115;28;20798;-69
2023/03/22 01:49:27;;;;;;;2.58;1.63;;;7.30;99.90;;;;;;5050833;28;20209;-69
2023/03/22 01:51:59;;;;;;;2.15;1.83;;;7.20;99.90;;;;;;5050250;28;20233;-69
2023/03/22 01:54:30;;;;;;;2.92;2.20;;;7.10;99.90;;;;;;5050502;28;20220;-69
2023/03/22 01:56:57;;;;;;;2.83;1.70;;;7.10;99.90;;;;;;5050147;28;20201;-69
2023/03/22 01:59:24;;;;;;;2.67;1.85;;;7.00;99.90;;;;;;5050633;28;20204;-69
2023/03/22 02:01:51;;;;;;;1.92;1.83;;;7.00;99.90;;;;;;5050148;28;20209;-69
2023/03/22 02:04:22;;;;;;;2.65;2.15;;;7.00;99.90;;;;;;5050195;28;20216;-69
2023/03/22 02:06:53;;;;;;;1.70;1.50;;;6.90;99.90;;;;;;5049729;28;20665;-69
2023/03/22 02:09:21;;;;;;;2.13;1.92;;;6.90;99.90;;;;;;5050424;28;20797;-69
2023/03/22 02:11:57;;;;;;;2.45;2.05;;;6.90;99.90;;;;;;5050140;28;20201;-69
2023/03/22 02:14:40;;;;;;;2.00;1.80;;;6.90;99.90;;;;;;5050580;28;20597;-69
2023/03/22 02:17:28;;;;;;;2.20;2.00;;;6.80;99.90;;;;;;5050157;28;20194;-69
2023/03/22 02:20:46;;;;;;;2.65;1.73;;;6.80;99.90;;;;;;5050042;28;20201;-69
2023/03/22 02:23:50;;;;;;;2.58;2.20;;;6.70;99.90;;;;;;5050155;28;20547;-69
2023/03/22 02:26:45;;;;;;;2.10;1.90;;;6.70;99.90;;;;;;5037742;28;20197;-69
2023/03/22 02:29:18;;;;;;;1.90;1.70;;;6.60;99.90;;;;;;5050305;28;20599;-69
2023/03/22 02:31:58;;;;;;;1.92;1.70;;;6.70;99.90;;;;;;5049726;28;20208;-69
2023/03/22 02:34:38;;;;;;;6.65;1.92;;;6.60;99.90;;;;;;5049836;28;20217;-69
2023/03/22 02:37:23;;;;;;;4.53;2.10;;;6.60;99.90;;;;;;5050348;28;20193;-69
2023/03/22 02:39:54;;;;;;;1.70;1.60;;;6.50;99.90;;;;;;5049768;28;20204;-69
2023/03/22 02:42:37;;;;;;;2.42;2.00;;;6.50;99.90;;;;;;5050252;28;20200;-69
2023/03/22 02:45:10;;;;;;;2.17;1.95;;;6.50;99.90;;;;;;5049638;28;20216;-69
2023/03/22 02:47:42;;;;;;;1.92;1.55;;;6.40;99.90;;;;;;5049495;28;20227;-69
2023/03/22 02:50:15;;;;;;;2.20;1.98;;;6.40;99.90;;;;;;5049937;28;20206;-69
2023/03/22 02:52:49;;;;;;;2.78;2.38;;;6.40;99.90;;;;;;5049516;28;20212;-69
2023/03/22 02:55:23;;;;;;;2.40;2.17;;;6.40;99.90;;;;;;5051575;28;20534;-69
2023/03/22 02:57:55;;;;;;;3.97;1.98;;;6.40;99.90;;;;;;5053482;28;20204;-69
2023/03/22 03:00:21;;;;;;;1.88;1.70;;;6.40;99.90;;;;;;5054235;28;20193;-69
2023/03/22 03:02:52;;;;;;;2.10;1.90;;;6.40;99.90;;;;;;5053727;28;20204;-68
2023/03/22 03:05:20;;;;;;;2.58;1.95;;;6.40;99.90;;;;;;5053497;28;20216;-69
2023/03/22 03:07:52;;;;;;;1.70;1.60;;;6.30;99.90;;;;;;5053152;28;20236;-69
2023/03/22 03:10:20;;;;;;;2.05;1.95;;;6.30;99.90;;;;;;5053744;28;20193;-69
2023/03/22 03:12:47;;;;;;;2.22;2.03;;;6.30;99.90;;;;;;5053268;28;20225;-69
2023/03/22 03:15:17;;;;;;;2.25;2.08;;;6.30;99.90;;;;;;5053520;28;20220;-69
2023/03/22 03:17:59;;;;;;;4.28;2.65;;;6.30;99.90;;;;;;5053135;28;20205;-68
2023/03/22 03:20:34;;;;;;;4.40;2.22;;;6.30;99.90;;;;;;5053644;28;20263;-69
2023/03/22 03:23:14;;;;;;;2.10;2.00;;;6.20;99.90;;;;;;5053038;28;20228;-69
2023/03/22 03:25:48;;;;;;;2.25;1.98;;;6.20;99.90;;;;;;5053178;28;20224;-69
2023/03/22 03:28:29;;;;;;;3.47;2.50;;;6.20;99.90;;;;;;5053147;28;20235;-69
2023/03/22 03:31:00;;;;;;;2.67;2.08;;;6.10;99.90;;;;;;5052971;28;20201;-69
2023/03/22 03:33:29;;;;;;;4.43;1.92;;;6.10;99.90;;;;;;5053192;28;20280;-69
2023/03/22 03:36:00;;;;;;;1.90;1.80;;;6.10;99.90;;;;;;5052753;28;20271;-69
2023/03/22 03:38:31;;;;;;;2.60;2.38;;;6.10;99.90;;;;;;5052927;28;20221;-69
2023/03/22 03:41:02;;;;;;;3.55;2.45;;;6.20;99.90;;;;;;5052838;28;20212;-69
2023/03/22 03:43:30;;;;;;;3.85;3.35;;;6.30;99.90;;;;;;5053109;28;20204;-69
2023/03/22 03:45:57;;;;;;;2.13;1.92;;;6.40;99.90;;;;;;5052575;28;20208;-69
2023/03/22 03:48:27;;;;;;;2.40;2.20;;;6.50;99.90;;;;;;5052446;28;20217;-69
2023/03/22 03:50:56;;;;;;;3.03;2.22;;;6.60;99.90;;;;;;5052646;28;20228;-69
2023/03/22 03:53:23;;;;;;;2.75;2.40;;;6.70;99.90;;;;;;5052808;28;20864;-69
2023/03/22 03:55:50;;;;;;;2.45;1.80;;;6.80;99.90;;;;;;5052291;28;20201;-69
2023/03/22 03:58:18;;;;;;;3.95;2.90;;;6.90;99.90;;;;;;5052575;28;20220;-69
2023/03/22 04:00:45;;;;;;;6.00;2.20;;;7.00;99.90;;;;;;5052433;28;20209;-69
2023/03/22 04:03:13;;;;;;;2.35;1.92;;;7.00;99.90;;;;;;5052517;28;20197;-69
2023/03/22 04:05:40;;;;;;;2.30;1.80;;;7.10;99.90;;;;;;5052127;28;20221;-69
2023/03/22 04:08:07;;;;;;;3.25;2.05;;;7.10;99.90;;;;;;5035879;28;20228;-69
2023/03/22 04:10:34;;;;;;;3.08;2.20;;;7.20;99.90;;;;;;5052495;28;20577;-69
2023/03/22 04:13:00;;;;;;;3.92;2.25;;;7.10;99.90;;;;;;5052192;28;20242;-69
2023/03/22 04:15:29;;;;;;;3.30;2.15;;;7.10;99.90;;;;;;5052320;28;20217;-69
2023/03/22 04:17:55;;;;;;;2.40;2.00;;;7.20;99.90;;;;;;5051731;28;20201;-69
2023/03/22 04:20:22;;;;;;;2.60;1.90;;;7.20;99.90;;;;;;5052390;28;20204;-69
2023/03/22 04:22:49;;;;;;;2.55;2.33;;;7.20;99.90;;;;;;5052015;28;20299;-69
2023/03/22 04:25:16;;;;;;;2.00;1.80;;;7.20;99.90;;;;;;5051914;28;20735;-69
2023/03/22 04:27:46;;;;;;;6.13;2.30;;;7.20;99.90;;;;;;5051849;28;20639;-68
2023/03/22 04:30:17;;;;;;;2.17;1.98;;;7.30;99.90;;;;;;5052146;28;20205;-69
2023/03/22 04:32:46;;;;;;;2.40;2.20;;;7.30;99.90;;;;;;5051699;28;20300;-69
2023/03/22 04:35:13;;;;;;;4.82;2.45;;;7.30;99.90;;;;;;5051778;28;20258;-69
2023/03/22 04:37:40;;;;;;;3.33;1.98;;;7.30;99.90;;;;;;5047644;28;20657;-69
2023/03/22 04:40:08;;;;;;;4.13;2.10;;;7.30;99.90;;;;;;5051563;28;20201;-70
2023/03/22 04:42:35;;;;;;;3.63;2.10;;;7.40;99.90;;;;;;5051827;28;20209;-68
2023/03/22 04:45:02;;;;;;;2.20;2.00;;;7.40;99.90;;;;;;5051397;28;20217;-69
2023/03/22 04:47:29;;;;;;;2.33;2.13;;;7.40;99.90;;;;;;5051329;28;20266;-69
2023/03/22 04:52:40;;;;;;;2.83;2.63;;;7.50;99.90;;;;;;5081257;28;20201;-94
2023/03/22 04:55:08;;;;;;;2.65;2.20;;;7.50;99.90;;;;;;5065542;28;20209;-91
2023/03/22 04:57:42;;;;;;;4.25;2.45;;;7.60;99.90;;;;;;5064074;28;20228;-93
2023/03/22 05:00:17;;;;;;;2.80;2.60;;;7.60;99.90;;;;;;5066503;28;20212;-93
2023/03/22 05:06:11;;;;;;;6.55;2.00;;;7.50;99.90;;;;;;5056287;28;20200;-92
2023/03/22 05:08:38;;;;;;;2.05;1.95;;;7.50;99.90;;;;;;5080373;22;20295;-69
2023/03/22 05:11:08;;;;;;;4.78;2.25;;;7.50;99.90;;;;;;5080407;28;20472;-69
2023/03/22 05:13:36;;;;;;;2.90;2.50;;;7.50;99.90;;;;;;5068094;28;20462;-69
2023/03/22 05:16:03;;;;;;;3.63;2.30;;;7.50;99.90;;;;;;5063933;28;20258;-69
2023/03/22 05:18:31;;;;;;;2.30;2.10;;;7.50;99.90;;;;;;5090865;28;20188;-69
2023/03/22 05:21:02;;;;;;;4.40;2.13;;;7.50;99.90;;;;;;5091145;28;20206;-69
2023/03/22 05:23:29;;;;;;;2.95;2.20;;;7.50;99.90;;;;;;5091853;28;20245;-69
2023/03/22 05:25:57;;;;;;;3.65;1.90;;;7.50;99.90;;;;;;5091506;28;20204;-69
2023/03/22 05:28:26;;;;;;;3.20;2.35;;;7.50;99.90;;;;;;5091230;28;20215;-69
2023/03/22 05:30:52;;;;;;;2.45;2.05;;;7.50;99.90;;;;;;5066555;28;20208;-69
2023/03/22 05:33:20;;;;;;;2.53;2.33;;;7.50;99.90;;;;;;5069630;28;20698;-69
2023/03/22 05:35:48;;;;;;;2.42;2.10;;;7.50;99.90;;;;;;5069996;28;20204;-69
2023/03/22 05:38:16;;;;;;;2.65;2.13;;;7.50;99.90;;;;;;5061846;28;20216;-68
2023/03/22 05:40:43;;;;;;;3.95;2.08;;;7.50;99.90;;;;;;5070336;28;20204;-69
2023/03/22 05:43:10;;;;;;;2.78;2.35;;;7.50;99.90;;;;;;5070145;28;20652;-69
2023/03/22 05:45:37;;;;;;;2.30;1.95;;;7.50;99.90;;;;;;5070319;28;20216;-69
2023/03/22 05:48:04;;;;;;;2.47;2.25;;;7.50;99.90;;;;;;5146211;23;20224;-74
2023/03/22 05:50:31;;;;;;;3.58;2.10;;;7.50;99.90;;;;;;5073660;28;20208;-74
2023/03/22 05:52:57;;;;;;;1.88;1.77;;;7.50;99.90;;;;;;5063409;28;20879;-73
2023/03/22 05:55:26;;;;;;;2.88;2.40;;;7.50;99.90;;;;;;5058346;28;20216;-73
2023/03/22 05:57:53;;;;;;;2.45;2.20;;;7.50;99.90;;;;;;5064667;28;20197;-73
2023/03/22 06:00:22;;;;;;;6.18;2.10;;;7.50;99.90;;;;;;5058185;28;20271;-73
2023/03/22 06:02:51;;;;;;;2.13;1.92;;;7.50;99.90;;;;;;5065089;28;20245;-73
2023/03/22 06:05:19;;;;;;;5.60;2.20;;;7.50;99.90;;;;;;5056925;28;20229;-73
2023/03/22 06:07:46;;;;;;;2.55;2.20;;;7.50;99.90;;;;;;5074604;28;20307;-74
2023/03/22 06:10:15;;;;;;;2.50;1.98;;;7.60;99.90;;;;;;5061862;28;20545;-73
2023/03/22 06:12:43;;;;;;;2.85;1.85;;;7.60;99.90;;;;;;5060397;28;20695;-74
2023/03/22 06:15:11;;;;;;;2.60;2.13;;;7.60;99.90;;;;;;5068251;28;20223;-73
2023/03/22 06:17:38;;;;;;;3.35;2.20;;;7.60;99.90;;;;;;5067246;28;20211;-74
2023/03/22 06:20:08;;;;;;;2.95;2.33;;;7.70;99.90;;;;;;5053304;28;20197;-73
2023/03/22 06:22:36;;;;;;;1.85;1.45;;;7.70;99.90;;;;;;5060871;28;20229;-73
2023/03/22 06:25:03;;;;;;;2.58;2.25;;;7.70;99.90;;;;;;5089253;28;20224;-73
2023/03/22 06:27:30;;;;;;;5.50;2.90;;;7.70;99.90;;;;;;5092725;28;20690;-73
2023/03/22 06:29:58;;;;;;;3.08;2.05;;;7.80;99.90;;;;;;5092954;28;20210;-74
2023/03/22 06:32:25;;;;;;;1.90;1.70;;;7.80;99.90;;;;;;5093859;28;20207;-72
2023/03/22 06:34:52;;;;;;;2.60;2.20;;;7.90;99.90;;;;;;5094173;28;20219;-72
2023/03/22 06:37:19;;;;;;;2.80;2.40;;;7.90;99.90;;;;;;5094434;28;20214;-72
2023/03/22 06:39:46;;;;;;;2.17;1.90;;;8.00;99.90;;;;;;5096357;28;20206;-72
2023/03/22 06:42:13;;;;;;;4.82;2.30;;;8.00;99.90;;;;;;5095502;28;20218;-72
2023/03/22 06:44:42;;;;;;;2.47;1.70;;;8.10;99.90;;;;;;5095291;28;20228;-72
2023/03/22 06:47:11;;;;;;;2.05;1.95;;;8.10;99.90;;;;;;5094075;28;20195;-72
2023/03/22 06:49:38;;;;;;;2.35;2.15;;;8.20;99.90;;;;;;5094021;28;20298;-72
2023/03/22 06:52:05;;;;;;;1.90;1.60;;;8.30;99.90;;;;;;5092036;28;20200;-73
2023/03/22 06:54:31;;;;;;;1.70;1.60;;;8.40;99.90;;;;;;5077247;28;20220;-72
2023/03/22 06:56:58;;;;;;;2.35;1.90;;;8.60;99.90;;;;;;5071434;28;20204;-72
2023/03/22 06:59:25;;;;;;;1.75;1.65;;;8.70;99.90;;;;;;5085202;28;20203;-72
2023/03/22 07:01:52;;;;;;;2.22;1.80;;;8.90;99.90;;;;;;5092119;28;20214;-71
2023/03/22 07:04:20;;;;;;;2.10;1.90;;;9.00;99.90;;;;;;5091748;28;20588;-72
2023/03/22 07:06:47;;;;;;;2.38;1.70;;;9.10;99.90;;;;;;5092346;28;20206;-72
2023/03/22 07:09:13;;;;;;;1.63;1.52;;;9.30;99.90;;;;;;5091416;28;20632;-72
2023/03/22 07:11:40;;;;;;;1.80;1.58;;;9.50;99.90;;;;;;5088160;28;20200;-71
2023/03/22 07:14:07;;;;;;;2.25;2.05;;;9.70;99.90;;;;;;5087595;28;20220;-72
2023/03/22 07:16:33;;;;;;;2.33;1.60;;;10.00;99.90;;;;;;5088366;28;20207;-72
2023/03/22 07:19:00;;;;;;;2.03;1.40;;;10.40;99.90;;;;;;5080811;28;20185;-73
2023/03/22 07:21:28;;;;;;;1.42;1.33;;;10.80;99.90;;;;;;5055877;28;20192;-72
2023/03/22 07:23:55;;;;;;;1.40;1.30;;;11.30;99.90;;;;;;5071746;28;20311;-73
2023/03/22 07:26:22;;;;;;;1.63;1.52;;;11.60;99.90;;;;;;5073738;28;20204;-78
2023/03/22 07:28:49;;;;;;;1.92;1.60;;;12.00;99.90;;;;;;5095862;28;20298;-75
2023/03/22 07:31:16;;;;;;;1.77;1.40;;;12.00;99.90;;;;;;5092258;28;20223;-75
2023/03/22 07:33:44;;;;;;;2.10;1.50;;;12.20;99.90;;;;;;5067701;28;20229;-73
2023/03/22 07:36:11;;;;;;;1.77;1.50;;;12.60;99.90;;;;;;5048943;28;20205;-73
2023/03/22 07:38:40;;;;;;;1.10;1.00;;;13.00;99.90;;;;;;5049609;28;20197;-73
2023/03/22 07:41:06;;;;;;;2.20;1.50;;;13.20;99.90;;;;;;5059108;28;20210;-74
2023/03/22 07:43:33;;;;;;;1.80;1.60;;;13.40;99.90;;;;;;5061424;28;20198;-76
2023/03/22 07:46:00;;;;;;;2.20;1.70;;;13.50;99.90;;;;;;5088416;28;20479;-73
2023/03/22 07:48:27;;;;;;;2.23;1.77;;;13.60;99.90;;;;;;5093046;28;20473;-74
2023/03/22 07:50:56;;;;;;;2.03;1.63;;;13.80;99.90;;;;;;5093827;28;20457;-74
2023/03/22 07:53:24;;;;;;;1.60;1.50;;;14.00;99.90;;;;;;5078207;28;20499;-75
2023/03/22 07:55:52;;;;;;;1.50;1.40;;;13.90;99.90;;;;;;5094224;28;20457;-74
2023/03/22 07:58:19;;;;;;;2.97;1.37;;;14.00;99.60;;;;;;5078553;28;20574;-74
2023/03/22 08:00:48;;;;;;;1.97;1.77;;;14.30;99.50;;;;;;5060279;28;20832;-72
2023/03/22 08:03:15;;;;;;;2.60;1.63;;;14.90;99.10;;;;;;5064227;28;20507;-72
2023/03/22 08:05:42;;;;;;;1.33;1.23;;;14.90;98.60;;;;;;5072949;28;20478;-74
2023/03/22 08:08:09;;;;;;;1.40;1.30;;;15.00;98.20;;;;;;5067972;28;20463;-74
2023/03/22 08:10:36;;;;;;;2.33;2.13;;;14.80;98.70;;;;;;5065013;28;20494;-73
2023/03/22 08:13:04;;;;;;;1.60;1.47;;;15.30;98.50;;;;;;5076272;28;20477;-74
2023/03/22 08:15:31;;;;;;;2.10;1.60;;;16.00;98.10;;;;;;5065681;28;20490;-74
2023/03/22 08:17:58;;;;;;;2.33;1.77;;;16.60;97.30;;;;;;5084949;28;20516;-72
2023/03/22 08:20:26;;;;;;;2.10;1.90;;;17.10;96.40;;;;;;5071012;28;20474;-71
2023/03/22 08:22:52;;;;;;;2.03;1.30;;;17.40;95.70;;;;;;5071214;28;20498;-71
2023/03/22 08:25:20;;;;;;;1.97;1.57;;;16.90;96.00;;;;;;5070830;28;20860;-72
2023/03/22 08:27:47;;;;;;;3.00;1.30;;;17.00;96.50;;;;;;5070067;28;20835;-70
2023/03/22 08:30:16;;;;;;;2.30;1.47;;;17.90;95.70;;;;;;5070521;28;20490;-72
2023/03/22 08:32:43;;;;;;;3.23;1.47;;;18.40;94.60;;;;;;5070954;28;20574;-71
2023/03/22 08:35:11;;;;;;;4.80;1.70;;;18.10;94.30;;;;;;5069858;28;20492;-72
2023/03/22 08:37:40;;;;;;;2.03;1.23;;;18.30;94.70;;;;;;5070706;28;20471;-72
2023/03/22 08:40:10;;;;;;;3.93;1.70;;;18.60;94.10;;;;;;5070097;28;20462;-73
2023/03/22 08:42:37;;;;;;;1.40;1.20;;;18.40;93.60;;;;;;5070971;28;20470;-75
2023/03/22 08:45:04;;;;;;;3.03;1.27;;;18.10;93.80;;;;;;5062136;28;20903;-73
2023/03/22 08:47:33;;;;;;;1.30;1.20;;;18.50;93.50;;;;;;5070624;28;20478;-72
2023/03/22 08:50:00;;;;;;;2.60;1.40;;;19.70;93.60;;;;;;5069766;28;20485;-73
2023/03/22 08:52:27;;;;;;;1.97;1.53;;;20.90;92.60;;;;;;5069137;28;21028;-75
2023/03/22 08:54:55;;;;;;;1.67;1.37;;;22.10;91.60;;;;;;5070315;28;20565;-72
2023/03/22 08:57:22;;;;;;;2.33;1.30;;;22.70;90.20;;;;;;5069455;28;20548;-74
2023/03/22 08:59:51;;;;;;;1.17;1.07;;;23.00;90.00;;;;;;5070817;28;20945;-74
2023/03/22 09:02:18;;;;;;;1.67;1.40;;;23.20;87.30;;;;;;5070021;28;20504;-74
2023/03/22 09:04:47;;;;;;;3.03;1.50;;;23.30;86.90;;;;;;5069556;28;20479;-73
2023/03/22 09:07:14;;;;;;;1.53;1.43;;;22.50;87.20;;;;;;5071086;28;20463;-74
2023/03/22 09:09:41;;;;;;;1.40;1.30;;;22.30;89.00;;;;;;5070709;28;20577;-74
2023/03/22 09:12:09;;;;;;;1.60;1.40;;;22.60;88.60;;;;;;5067987;28;20573;-74
2023/03/22 09:14:36;;;;;;;1.90;1.60;;;22.40;87.00;;;;;;5069111;28;20483;-74
2023/03/22 09:17:03;;;;;;;1.13;1.00;;;22.10;88.90;;;;;;5051926;28;20471;-74
2023/03/22 09:19:30;;;;;;;2.03;1.30;;;22.80;87.80;;;;;;5058358;28;20519;-75
2023/03/22 09:21:58;;;;;;;1.30;1.10;;;23.20;87.60;;;;;;5083408;28;20459;-76
2023/03/22 09:24:26;;;;;;;2.97;1.13;;;24.10;87.40;;;;;;5061203;28;20897;-73
2023/03/22 09:26:52;;;;;;;2.10;1.27;;;25.00;84.20;;;;;;5055538;28;20455;-74
2023/03/22 09:29:19;;;;;;;2.13;1.50;;;25.70;83.00;;;;;;5059686;28;20860;-73
2023/03/22 09:31:48;;;;;;;2.20;1.30;;;25.90;81.00;;;;;;5076852;28;20882;-74
2023/03/22 09:34:15;;;;;;;2.50;1.20;;;25.90;80.70;;;;;;5089746;28;20481;-74
2023/03/22 09:36:42;;;;;;;1.67;1.30;;;24.60;80.50;;;;;;5089954;28;20463;-73
2023/03/22 09:39:11;;;;;;;1.60;1.37;;;23.20;84.20;;;;;;5090154;28;20541;-73
2023/03/22 09:41:41;;;;;;;2.10;1.23;;;23.30;84.60;;;;;;5089938;28;20462;-75
2023/03/22 09:44:14;;;;;;;2.03;1.30;;;23.00;84.20;;;;;;5069837;28;20556;-75
2023/03/22 09:46:44;;;;;;;2.90;1.20;;;22.60;84.20;;;;;;5076129;28;20474;-74
2023/03/22 09:49:15;;;;;;;1.20;1.10;;;21.80;86.10;;;;;;5052979;28;20578;-75
2023/03/22 09:51:44;;;;;;;1.53;0.90;;;21.70;86.80;;;;;;5063959;28;20459;-76
2023/03/22 09:54:18;;;;;;;2.70;1.50;;;22.30;86.80;;;;;;5057507;28;21158;-72
2023/03/22 09:56:48;;;;;;;1.03;0.93;;;23.30;84.20;;;;;;5068193;28;20463;-73
2023/03/22 09:59:21;;;;;;;1.93;1.30;;;24.30;84.10;;;;;;5059879;28;20460;-74
2023/03/22 10:01:55;;;;;;;2.00;1.50;;;25.10;82.10;;;;;;5055939;28;20816;-74
2023/03/22 10:04:38;;;;;;;1.23;1.13;;;25.10;81.80;;;;;;5061671;28;21011;-75
2023/03/22 10:07:14;;;;;;;1.20;1.03;;;24.40;81.30;;;;;;5064730;28;20459;-74
2023/03/22 10:09:53;;;;;;;1.73;1.33;;;23.60;82.60;;;;;;5066852;28;20536;-72
2023/03/22 10:12:26;;;;;;;1.53;1.30;;;24.10;81.80;;;;;;5067639;28;20490;-74
2023/03/22 10:15:03;;;;;;;1.83;1.10;;;24.30;81.30;;;;;;5054529;28;20483;-74
2023/03/22 10:17:31;;;;;;;1.20;1.10;;;24.90;81.80;;;;;;5049762;28;20466;-74
2023/03/22 10:20:04;;;;;;;1.67;1.10;;;24.70;80.50;;;;;;5053781;28;20460;-74
2023/03/22 10:22:35;;;;;;;1.20;1.00;;;24.00;81.90;;;;;;5054347;28;20557;-74
2023/03/22 10:25:05;;;;;;;1.50;1.40;;;23.60;84.10;;;;;;5073104;28;20485;-74
2023/03/22 10:27:34;;;;;;;1.33;1.10;;;23.00;82.90;;;;;;5090116;28;21080;-75
2023/03/22 10:30:04;;;;;;;2.20;1.47;;;21.80;85.10;;;;;;5089605;28;20856;-73
2023/03/22 10:32:38;;;;;;;1.80;1.43;;;22.30;84.90;;;;;;5089695;28;20466;-71
2023/03/22 10:35:05;;;;;;;2.93;1.30;;;23.20;83.90;;;;;;5081628;28;20884;-73
2023/03/22 10:37:34;;;;;;;1.23;1.10;;;24.80;82.50;;;;;;5064517;28;20524;-72
2023/03/22 10:40:07;;;;;;;2.00;1.30;;;26.10;80.00;;;;;;5060964;28;20463;-72
2023/03/22 10:42:37;;;;;;;1.50;1.40;;;27.50;80.00;;;;;;5060606;28;20451;-74
2023/03/22 10:45:07;;;;;;;1.20;1.10;;;27.70;75.50;;;;;;5055487;28;20892;-73
2023/03/22 10:47:36;;;;;;;1.17;0.90;;;26.80;78.20;;;;;;5052422;28;20474;-72
2023/03/22 10:50:06;;;;;;;1.43;1.10;;;27.30;75.90;;;;;;5067315;28;20483;-74
2023/03/22 10:52:39;;;;;;;1.97;1.20;;;27.50;79.90;;;;;;5078420;28;20484;-73
2023/03/22 10:55:11;;;;;;;1.93;1.33;;;28.50;74.00;;;;;;5080023;28;20851;-74
2023/03/22 10:57:38;;;;;;;1.87;1.00;;;28.60;71.90;;;;;;5060958;28;20461;-74
2023/03/22 11:00:10;;;;;;;2.30;1.00;;;28.60;71.60;;;;;;5062681;28;20505;-72
2023/03/22 11:02:46;;;;;;;1.30;0.90;;;28.90;72.00;;;;;;5078346;28;20581;-73
2023/03/22 11:05:21;;;;;;;1.40;1.20;;;28.60;69.40;;;;;;5088944;28;20473;-72
2023/03/22 11:07:49;;;;;;;1.83;1.03;;;27.10;72.40;;;;;;5089150;28;20456;-74
2023/03/22 11:10:26;;;;;;;1.13;1.03;;;26.40;72.80;;;;;;5082008;28;20524;-74
2023/03/22 11:12:54;;;;;;;1.50;1.20;;;26.10;73.50;;;;;;5089732;28;20493;-74
2023/03/22 11:15:25;;;;;;;1.30;1.10;;;24.80;74.40;;;;;;5088990;28;21005;-74
2023/03/22 11:17:58;;;;;;;1.20;1.10;;;24.00;76.90;;;;;;5093106;28;20947;-73
2023/03/22 11:20:25;;;;;;;1.70;1.07;;;23.90;76.20;;;;;;5083640;28;20463;-74
2023/03/22 11:22:52;;;;;;;1.30;0.90;;;23.30;78.20;;;;;;5093547;28;20976;-73
2023/03/22 11:25:27;;;;;;;1.20;1.10;;;23.60;77.40;;;;;;5075454;28;20505;-74
2023/03/22 11:27:56;;;;;;;1.10;0.90;;;24.00;76.20;;;;;;5088618;28;20839;-72
2023/03/22 11:30:26;;;;;;;2.73;1.43;;;24.50;77.50;;;;;;5093044;28;21050;-74
2023/03/22 11:33:17;;;;;;;1.30;1.17;;;25.10;75.50;;;;;;5092930;28;20449;-74
2023/03/22 11:35:46;;;;;;;1.20;1.10;;;25.70;73.70;;;;;;5093183;28;20484;-74
2023/03/22 11:38:23;;;;;;;1.50;1.20;;;26.40;75.20;;;;;;5092403;28;20952;-73
2023/03/22 11:40:55;;;;;;;1.00;0.90;;;27.20;75.10;;;;;;5093022;28;20453;-73
2023/03/22 11:43:26;;;;;;;1.03;0.90;;;28.10;70.50;;;;;;5092279;28;20461;-75
2023/03/22 11:45:56;;;;;;;1.70;1.13;;;28.90;68.10;;;;;;5086506;28;20454;-73
2023/03/22 11:48:25;;;;;;;1.00;0.87;;;28.40;64.30;;;;;;5063973;28;20466;-73
2023/03/22 11:50:53;;;;;;;1.77;1.13;;;26.80;65.20;;;;;;5066618;28;20526;-73
2023/03/22 11:55:50;;;;;;;1.30;1.00;;;25.30;66.40;;;;;;5051430;28;21042;-71
2023/03/22 11:58:27;;;;;;;1.10;1.00;;;26.10;65.80;;;;;;5052265;28;20931;-71
2023/03/22 12:00:56;;;;;;;1.20;1.10;;;26.90;64.50;;;;;;5046938;28;20499;-71
2023/03/22 12:03:27;;;;;;;1.10;0.87;;;27.20;63.50;;;;;;5032448;28;20905;-71
2023/03/22 12:05:55;;;;;;;1.90;1.03;;;27.50;64.50;;;;;;5041380;28;20998;-71
2023/03/22 12:08:28;;;;;;;0.90;0.70;;;27.10;65.20;;;;;;5032068;28;20951;-69
2023/03/22 12:11:01;;;;;;;1.43;1.10;;;26.40;63.50;;;;;;5032853;28;20911;-71
2023/03/22 12:13:38;;;;;;;1.00;0.90;;;26.30;67.60;;;;;;5032373;28;20480;-71
2023/03/22 12:16:07;;;;;;;1.30;1.10;;;25.80;65.40;;;;;;5032758;28;20463;-71
2023/03/22 12:18:39;;;;;;;1.53;0.90;;;26.00;68.60;;;;;;5032848;28;20460;-71
2023/03/22 12:21:06;;;;;;;1.00;0.90;;;26.40;65.90;;;;;;5033935;28;20460;-71
2023/03/22 12:23:34;;;;;;;1.10;1.00;;;26.60;66.70;;;;;;5033070;28;20496;-71
2023/03/22 12:26:05;;;;;;;1.43;1.00;;;26.30;67.70;;;;;;5033155;28;20894;-71
2023/03/22 12:28:39;;;;;;;3.20;1.17;;;26.30;67.10;;;;;;5033294;28;20491;-71
2023/03/22 12:31:11;;;;;;;1.73;1.10;;;26.90;66.70;;;;;;5034058;28;20480;-70
2023/03/22 12:33:43;;;;;;;1.47;1.10;;;27.40;65.90;;;;;;5033952;28;20534;-71
2023/03/22 12:36:16;;;;;;;1.20;1.10;;;26.90;67.10;;;;;;5036579;28;20474;-71
2023/03/22 12:38:49;;;;;;;0.97;0.87;;;26.80;67.10;;;;;;5039760;28;20468;-70
2023/03/22 12:41:25;;;;;;;1.10;1.00;;;26.30;68.70;;;;;;5031220;28;20467;-72
2023/03/22 12:43:56;;;;;;;1.20;1.00;;;26.30;68.60;;;;;;5032036;28;20606;-71
2023/03/22 12:46:28;;;;;;;1.10;1.00;;;25.80;66.40;;;;;;5030857;28;20468;-71
2023/03/22 12:49:00;;;;;;;1.33;1.00;;;25.30;67.40;;;;;;5032215;28;20472;-70
2023/03/22 12:51:27;;;;;;;1.43;1.10;;;24.80;67.90;;;;;;5030517;28;20497;-71
2023/03/22 12:53:56;;;;;;;1.20;1.00;;;24.70;67.40;;;;;;5031445;28;20492;-71
2023/03/22 12:56:26;;;;;;;1.73;1.03;;;25.20;68.90;;;;;;5030357;28;20464;-71
2023/03/22 12:58:58;;;;;;;1.17;0.90;;;25.50;68.70;;;;;;5031620;28;20971;-72
2023/03/22 13:01:35;;;;;;;1.70;1.07;;;24.70;68.60;;;;;;5030895;28;20453;-71
2023/03/22 13:04:30;;;;;;;1.07;0.97;;;24.50;69.20;;;;;;5030763;28;20491;-70
2023/03/22 13:07:07;;;;;;;1.10;1.00;;;25.20;68.90;;;;;;5031102;28;20453;-72
2023/03/22 13:09:40;;;;;;;1.30;1.00;;;26.00;67.10;;;;;;5031033;28;20460;-68
2023/03/22 13:12:32;;;;;;;1.17;1.00;;;25.90;66.40;;;;;;5037005;28;20460;-70
2023/03/22 13:15:23;;;;;;;1.10;1.00;;;25.10;70.40;;;;;;5043957;28;20476;-71